Time;durP1;ratioP1;P1;durP2;ratioP2;P2;SDS_P1;SDS_P2;PMS_P1;PMS_P2;Temp;Humidity;BMP_temperature;BMP_pressure;BME280_temperature;BME280_humidity;BME280_pressure;Samples;Min_cycle;Max_cycle;Signal;HPM_P1;HPM_P2
2022/01/27 00:04:52;;;;;;;280.38;204.43;;;;;;;23.59;31.14;103196.66;5072131;28;20086;-42
2022/01/27 00:07:21;;;;;;;275.85;197.55;;;;;;;23.58;31.16;103197.50;5075774;28;20036;-41
2022/01/27 00:10:08;;;;;;;281.45;199.13;;;;;;;23.57;31.63;103198.31;5076360;28;20054;-41
2022/01/27 00:12:36;;;;;;;290.70;206.00;;;;;;;23.56;31.40;103199.13;5076362;28;20533;-42
2022/01/27 00:15:11;;;;;;;285.27;202.77;;;;;;;23.54;31.75;103201.69;5076520;28;20482;-42
2022/01/27 00:17:48;;;;;;;305.17;209.45;;;;;;;23.55;31.47;103193.00;5076104;28;20108;-41
2022/01/27 00:20:17;;;;;;;282.55;203.55;;;;;;;23.52;31.39;103196.34;5076238;28;20028;-41
2022/01/27 00:22:46;;;;;;;283.25;203.30;;;;;;;23.49;31.40;103192.69;5075631;28;20390;-41
2022/01/27 00:25:14;;;;;;;290.00;203.77;;;;;;;23.45;31.52;103186.41;5076091;28;20071;-42
2022/01/27 00:27:43;;;;;;;278.33;200.48;;;;;;;23.47;31.51;103184.75;5075547;28;20025;-42
2022/01/27 00:30:12;;;;;;;282.85;201.77;;;;;;;23.47;31.46;103186.47;5075404;28;20434;-42
2022/01/27 00:32:40;;;;;;;294.92;208.48;;;;;;;23.44;31.54;103189.84;5075198;28;20025;-41
2022/01/27 00:35:09;;;;;;;289.45;205.38;;;;;;;23.45;31.52;103195.97;5075829;28;20053;-42
2022/01/27 00:37:37;;;;;;;277.65;198.48;;;;;;;23.46;31.93;103182.97;5076183;28;20096;-41
2022/01/27 00:40:10;;;;;;;296.27;209.05;;;;;;;23.43;31.87;103185.44;5057945;28;20025;-41
2022/01/27 00:42:39;;;;;;;288.73;206.65;;;;;;;23.42;31.68;103186.25;5076137;28;20025;-42
2022/01/27 00:45:08;;;;;;;303.50;212.20;;;;;;;23.39;31.63;103186.09;5076004;28;20020;-41
2022/01/27 00:47:37;;;;;;;289.48;202.10;;;;;;;23.38;31.53;103184.28;5075511;28;20028;-41
2022/01/27 00:50:05;;;;;;;297.17;209.52;;;;;;;23.30;31.72;103170.81;5056980;28;20387;-41
2022/01/27 00:52:42;;;;;;;292.40;209.82;;;;;;;23.39;31.75;103180.84;5057757;28;20054;-41
2022/01/27 00:55:13;;;;;;;296.15;208.95;;;;;;;23.35;31.69;103179.78;5057310;28;20025;-43
2022/01/27 00:58:11;;;;;;;286.48;208.93;;;;;;;23.33;31.90;103183.16;5075199;28;20025;-42
2022/01/27 01:00:44;;;;;;;289.13;207.40;;;;;;;23.35;31.92;103181.50;5074811;28;20036;-42
2022/01/27 01:03:24;;;;;;;287.67;205.23;;;;;;;23.38;31.99;103179.03;5075085;28;20530;-42
2022/01/27 01:06:43;;;;;;;285.45;207.63;;;;;;;23.36;31.78;103178.06;5075572;28;20031;-42
2022/01/27 01:29:25;;;;;;;293.40;212.85;;;;;;;23.23;31.98;103176.56;5075659;28;20021;-42
2022/01/27 01:30:45;;;;;;;284.90;207.43;;;;;;;23.23;32.19;103175.66;5067861;28;20108;-41
2022/01/27 01:33:13;;;;;;;299.13;213.23;;;;;;;23.21;31.99;103184.31;5074564;28;20040;-42
2022/01/27 01:36:01;;;;;;;294.52;214.88;;;;;;;23.23;31.73;103187.03;5074144;28;20554;-41
2022/01/27 01:38:30;;;;;;;303.48;210.93;;;;;;;23.25;32.14;103187.09;5074853;28;20055;-42
2022/01/27 01:40:59;;;;;;;306.15;216.23;;;;;;;23.23;31.71;103186.13;5057078;28;20028;-42
2022/01/27 01:43:29;;;;;;;302.15;213.77;;;;;;;23.19;31.89;103191.16;5073997;28;20138;-41
2022/01/27 01:45:57;;;;;;;305.17;218.50;;;;;;;23.18;32.02;103191.97;5074754;28;20039;-41
2022/01/27 01:48:26;;;;;;;311.23;220.75;;;;;;;23.15;31.95;103196.16;5074628;28;20027;-41
2022/01/27 01:50:55;;;;;;;298.35;215.93;;;;;;;23.19;32.24;103203.38;5074675;28;20093;-41
2022/01/27 01:53:23;;;;;;;300.80;220.10;;;;;;;23.14;32.30;103197.91;5074523;28;20047;-42
2022/01/27 01:55:52;;;;;;;304.42;216.02;;;;;;;23.15;32.46;103190.94;5074475;28;20387;-41
2022/01/27 01:58:20;;;;;;;300.88;216.77;;;;;;;23.13;31.92;103198.72;5074441;28;20024;-41
2022/01/27 02:00:49;;;;;;;294.15;215.80;;;;;;;22.99;32.03;103184.00;5074695;28;20095;-42
2022/01/27 02:03:18;;;;;;;309.02;220.60;;;;;;;23.17;31.95;103210.25;5074063;28;20024;-41
2022/01/27 02:05:51;;;;;;;301.85;213.63;;;;;;;23.15;31.96;103215.41;5074946;28;20028;-41
2022/01/27 02:19:19;;;;;;;317.58;224.27;;;;;;;23.08;32.36;103221.13;5066278;28;20368;-41
2022/01/27 02:21:52;;;;;;;301.90;218.90;;;;;;;23.04;31.95;103217.47;5073939;28;20024;-41
2022/01/27 02:24:22;;;;;;;308.25;219.85;;;;;;;23.10;31.99;103221.19;5074241;28;20063;-42
2022/01/27 02:26:52;;;;;;;310.40;219.13;;;;;;;23.03;32.25;103215.66;5073646;28;20425;-42
2022/01/27 02:29:21;;;;;;;317.10;226.38;;;;;;;23.05;32.35;103215.72;5072779;28;20028;-41
2022/01/27 02:31:54;;;;;;;307.80;221.25;;;;;;;23.04;32.30;103217.47;5073582;28;20082;-41
2022/01/27 02:34:23;;;;;;;312.48;219.52;;;;;;;23.06;32.48;103201.81;5055155;28;20049;-41
2022/01/27 02:36:51;;;;;;;315.77;220.98;;;;;;;22.99;32.09;103191.88;5074032;28;20092;-41
2022/01/27 02:39:21;;;;;;;304.90;221.57;;;;;;;23.01;32.21;103192.81;5073287;28;20028;-41
2022/01/27 02:41:50;;;;;;;308.42;218.65;;;;;;;23.03;32.36;103184.25;5073785;28;20036;-41
2022/01/27 02:44:26;;;;;;;305.65;221.40;;;;;;;23.04;32.07;103191.28;5073454;28;20029;-42
2022/01/27 02:46:54;;;;;;;324.67;228.95;;;;;;;23.07;32.09;103180.06;5073681;28;20016;-41
2022/01/27 02:49:23;;;;;;;313.05;224.45;;;;;;;22.95;32.50;103177.69;5073500;28;20047;-42
2022/01/27 02:51:53;;;;;;;322.17;228.57;;;;;;;23.02;32.20;103177.22;5073327;28;20020;-42
2022/01/27 02:54:21;;;;;;;320.90;227.05;;;;;;;23.00;32.30;103196.28;5072984;28;20017;-42
2022/01/27 02:56:50;;;;;;;308.73;220.15;;;;;;;23.03;32.21;103185.94;5073426;28;20435;-42
2022/01/27 02:59:20;;;;;;;315.65;225.15;;;;;;;22.98;32.54;103187.44;5073439;28;20025;-41
2022/01/27 03:01:50;;;;;;;325.83;234.25;;;;;;;22.97;32.60;103180.41;5073063;28;20032;-41
2022/01/27 03:04:20;;;;;;;312.80;226.30;;;;;;;23.01;32.49;103171.88;5073355;28;20039;-42
2022/01/27 03:06:49;;;;;;;314.58;223.88;;;;;;;22.99;32.55;103174.44;5073202;28;20035;-42
2022/01/27 03:09:18;;;;;;;321.52;232.02;;;;;;;22.99;32.38;103165.69;5073221;28;20020;-41
2022/01/27 03:11:48;;;;;;;329.75;230.07;;;;;;;23.00;32.18;103170.09;5072642;28;20165;-41
2022/01/27 03:14:20;;;;;;;311.85;225.98;;;;;;;22.90;32.49;103153.03;5055329;28;20780;-43
2022/01/27 03:16:48;;;;;;;311.23;226.23;;;;;;;22.96;32.63;103163.78;5073320;28;20029;-44
2022/01/27 03:19:17;;;;;;;324.73;232.32;;;;;;;22.95;32.42;103164.59;5072632;28;20035;-42
2022/01/27 03:21:46;;;;;;;321.02;226.23;;;;;;;22.92;32.42;103160.13;5073156;28;20029;-42
2022/01/27 03:24:15;;;;;;;314.85;228.63;;;;;;;22.96;32.39;103163.78;5072799;28;20028;-42
2022/01/27 03:26:44;;;;;;;318.85;231.23;;;;;;;22.77;32.62;103141.00;5055421;28;20028;-42
2022/01/27 03:29:15;;;;;;;336.20;229.88;;;;;;;22.93;32.44;103158.38;5054836;28;20545;-41
2022/01/27 03:31:44;;;;;;;322.63;228.60;;;;;;;22.98;32.51;103158.66;5072372;28;20100;-41
2022/01/27 03:34:13;;;;;;;313.58;227.73;;;;;;;22.92;32.68;103140.88;5072761;28;20495;-41
2022/01/27 03:36:42;;;;;;;315.35;228.85;;;;;;;22.91;32.75;103144.34;5072865;28;20036;-40
2022/01/27 03:39:14;;;;;;;318.35;227.80;;;;;;;22.92;32.69;103131.34;5073250;28;20501;-41
2022/01/27 03:41:49;;;;;;;314.48;229.93;;;;;;;22.90;32.83;103132.09;5077202;28;20078;-41
2022/01/27 03:44:18;;;;;;;316.75;227.85;;;;;;;22.84;32.74;103132.63;5076815;28;20039;-41
2022/01/27 03:46:47;;;;;;;328.70;231.63;;;;;;;22.88;32.48;103128.47;5076948;28;20031;-41
2022/01/27 03:49:16;;;;;;;314.73;225.30;;;;;;;22.87;32.83;103130.19;5076629;28;20025;-41
2022/01/27 03:51:45;;;;;;;330.67;234.82;;;;;;;22.86;32.79;103131.00;5059089;28;20034;-41
2022/01/27 03:54:14;;;;;;;317.10;230.38;;;;;;;22.85;32.45;103112.63;5075694;28;20043;-42
2022/01/27 03:56:43;;;;;;;320.15;232.82;;;;;;;22.88;32.75;103116.28;5059344;28;20034;-40
2022/01/27 03:59:12;;;;;;;336.30;237.23;;;;;;;22.83;32.66;103111.63;5076683;28;20020;-41
2022/01/27 04:01:40;;;;;;;337.35;237.30;;;;;;;22.87;32.76;103110.97;5075959;28;20025;-41
2022/01/27 04:04:09;;;;;;;338.35;238.93;;;;;;;22.85;32.60;103128.31;5076571;28;20020;-43
2022/01/27 04:06:40;;;;;;;328.70;236.10;;;;;;;22.81;32.75;103129.88;5076562;28;20025;-41
2022/01/27 04:09:10;;;;;;;333.38;234.75;;;;;;;22.82;32.77;103123.84;5076471;28;20031;-41
2022/01/27 04:11:40;;;;;;;336.13;237.32;;;;;;;22.84;32.93;103129.13;5076227;28;20027;-41
2022/01/27 04:14:10;;;;;;;335.15;235.75;;;;;;;22.82;32.75;103117.69;5058613;28;20651;-41
2022/01/27 04:16:39;;;;;;;330.45;235.73;;;;;;;22.87;32.53;103113.59;5076238;28;20020;-41
2022/01/27 04:19:08;;;;;;;324.85;233.98;;;;;;;22.84;32.54;103121.28;5075687;28;20438;-41
2022/01/27 04:21:36;;;;;;;336.42;234.07;;;;;;;22.80;32.70;103117.63;5076211;28;20368;-41
2022/01/27 04:24:05;;;;;;;325.88;233.48;;;;;;;22.81;32.92;103122.03;5076039;28;20046;-45
2022/01/27 04:26:42;;;;;;;339.65;238.27;;;;;;;22.76;33.01;103127.00;5075938;28;20028;-41
2022/01/27 04:29:11;;;;;;;329.42;234.30;;;;;;;22.82;32.80;103131.69;5076052;28;20128;-41
2022/01/27 04:31:42;;;;;;;334.27;238.20;;;;;;;22.83;32.91;103135.19;5076171;28;20024;-41
2022/01/27 04:34:12;;;;;;;322.05;231.63;;;;;;;22.77;32.72;103135.78;5075732;28;20052;-41
2022/01/27 04:36:41;;;;;;;320.38;231.35;;;;;;;22.77;32.95;103139.28;5075546;28;20071;-41
2022/01/27 04:41:46;;;;;;;331.98;235.23;;;;;;;22.82;32.66;103134.31;5076076;28;20029;-41
2022/01/27 04:44:27;;;;;;;338.35;235.90;;;;;;;22.81;32.94;103139.44;5075744;28;20550;-42
2022/01/27 04:47:06;;;;;;;338.83;241.00;;;;;;;22.76;32.80;103140.09;5075219;28;20032;-40
2022/01/27 04:49:34;;;;;;;331.80;231.98;;;;;;;22.75;32.94;103146.13;5059749;28;20020;-41
2022/01/27 04:52:03;;;;;;;333.20;233.32;;;;;;;22.77;32.98;103138.38;5074998;28;20095;-41
2022/01/27 04:54:38;;;;;;;333.50;233.80;;;;;;;22.77;32.85;103136.66;5075818;28;20055;-41
2022/01/27 04:57:07;;;;;;;336.13;237.07;;;;;;;22.74;32.79;103140.84;5074726;28;20487;-41
2022/01/27 04:59:40;;;;;;;337.02;234.02;;;;;;;22.72;33.07;103142.47;5075560;28;21349;-42
2022/01/27 05:02:17;;;;;;;332.02;235.35;;;;;;;22.68;33.02;103125.72;5057503;28;20020;-41
2022/01/27 05:04:49;;;;;;;335.85;232.18;;;;;;;22.69;32.91;103134.44;5075294;28;20490;-41
2022/01/27 05:07:18;;;;;;;324.13;233.40;;;;;;;22.41;33.07;103091.09;5074857;28;20038;-41
2022/01/27 05:09:54;;;;;;;339.70;240.70;;;;;;;22.69;32.97;103144.91;5075707;28;20024;-41
2022/01/27 05:12:40;;;;;;;326.30;235.55;;;;;;;22.69;32.85;103158.91;5075062;28;20024;-42
2022/01/27 05:15:09;;;;;;;330.55;235.57;;;;;;;22.69;33.07;103158.00;5075274;28;20453;-42
2022/01/27 05:17:37;;;;;;;332.77;233.73;;;;;;;22.68;32.65;103171.91;5075179;28;20036;-43
2022/01/27 05:20:07;;;;;;;336.23;237.00;;;;;;;22.69;32.82;103158.91;5075155;28;20033;-40
2022/01/27 05:22:36;;;;;;;329.20;233.68;;;;;;;22.67;32.87;103163.16;5075157;28;20471;-41
2022/01/27 05:25:06;;;;;;;339.90;242.32;;;;;;;22.66;33.12;103160.47;5075432;28;20033;-41
2022/01/27 05:27:35;;;;;;;328.08;232.00;;;;;;;22.66;33.08;103157.88;5075242;28;20028;-42
2022/01/27 05:30:04;;;;;;;341.58;235.98;;;;;;;22.65;32.87;103162.19;5074908;28;20032;-42
2022/01/27 05:32:35;;;;;;;319.70;232.57;;;;;;;22.66;33.15;103153.50;5074931;28;20021;-42
2022/01/27 05:35:04;;;;;;;331.75;230.25;;;;;;;22.69;33.03;103153.69;5074641;28;20514;-42
2022/01/27 05:37:32;;;;;;;323.15;232.60;;;;;;;22.65;32.80;103154.31;5074716;28;20025;-43
2022/01/27 05:40:01;;;;;;;335.70;237.60;;;;;;;22.65;32.97;103150.81;5056903;28;20029;-42
2022/01/27 05:42:30;;;;;;;328.63;236.52;;;;;;;22.65;32.85;103136.00;5075103;28;20031;-42
2022/01/27 05:44:58;;;;;;;337.95;241.95;;;;;;;22.63;32.99;103137.66;5075081;28;20024;-44
2022/01/27 05:47:27;;;;;;;341.90;242.02;;;;;;;22.60;33.15;103146.25;5074837;28;20104;-42
2022/01/27 05:49:57;;;;;;;331.77;233.82;;;;;;;22.57;33.00;103134.72;5074516;28;20103;-42
2022/01/27 05:52:26;;;;;;;345.10;241.80;;;;;;;22.55;33.37;103139.84;5074539;28;20504;-43
2022/01/27 05:54:54;;;;;;;348.50;242.57;;;;;;;22.59;32.96;103160.13;5074528;28;20089;-42
2022/01/27 05:57:23;;;;;;;343.35;240.07;;;;;;;22.57;33.32;103156.53;5074504;28;20029;-42
2022/01/27 05:59:52;;;;;;;343.17;239.13;;;;;;;22.60;32.94;103161.03;5074337;28;20112;-42
2022/01/27 06:02:20;;;;;;;350.00;244.30;;;;;;;22.54;33.37;103153.75;5073949;28;20020;-42
2022/01/27 06:04:49;;;;;;;342.75;239.40;;;;;;;22.58;32.96;103158.34;5073695;28;20062;-41
2022/01/27 06:07:17;;;;;;;327.23;235.65;;;;;;;22.56;33.37;103157.34;5074169;28;20093;-40
2022/01/27 06:09:46;;;;;;;342.15;244.35;;;;;;;22.53;33.30;103157.19;5073740;28;20025;-41
2022/01/27 06:12:14;;;;;;;324.25;235.82;;;;;;;22.55;33.02;103150.31;5056080;28;20036;-42
2022/01/27 06:14:43;;;;;;;347.98;246.70;;;;;;;22.55;33.21;103149.44;5074414;28;20443;-41
2022/01/27 06:17:12;;;;;;;340.80;239.50;;;;;;;22.51;33.04;103143.13;5073883;28;20036;-41
2022/01/27 06:19:45;;;;;;;351.63;242.98;;;;;;;22.52;33.04;103158.00;5073937;28;20051;-41
2022/01/27 06:22:15;;;;;;;341.77;241.82;;;;;;;22.52;33.30;103149.25;5073762;28;20391;-41
2022/01/27 06:24:45;;;;;;;338.40;244.07;;;;;;;22.47;33.34;103143.78;5073779;28;20090;-42
2022/01/27 06:27:14;;;;;;;345.77;246.07;;;;;;;22.51;33.13;103150.06;5074021;28;20027;-41
2022/01/27 06:29:43;;;;;;;338.38;237.35;;;;;;;22.51;33.04;103150.06;5074332;28;20031;-42
2022/01/27 06:32:11;;;;;;;339.65;238.18;;;;;;;22.50;33.15;103153.50;5073591;28;20031;-41
2022/01/27 06:34:40;;;;;;;347.15;236.73;;;;;;;22.54;33.08;103158.09;5055672;28;20075;-42
2022/01/27 06:37:08;;;;;;;351.67;243.68;;;;;;;22.51;33.07;103161.44;5073609;28;20035;-41
2022/01/27 06:39:37;;;;;;;345.77;246.65;;;;;;;22.51;33.38;103153.56;5073685;28;20535;-40
2022/01/27 06:42:07;;;;;;;348.52;244.68;;;;;;;22.47;33.28;103156.88;5073329;28;20066;-41
2022/01/27 06:44:36;;;;;;;344.70;241.48;;;;;;;22.48;33.37;103155.13;5072948;28;20074;-42
2022/01/27 06:47:05;;;;;;;341.90;247.02;;;;;;;22.49;33.31;103151.72;5073368;28;20032;-41
2022/01/27 06:49:34;;;;;;;345.45;239.70;;;;;;;22.48;33.41;103150.81;5073490;28;20423;-41
2022/01/27 06:52:01;;;;;;;353.65;252.75;;;;;;;22.45;33.25;103150.66;5072674;28;20106;-41
2022/01/27 06:54:30;;;;;;;353.88;249.13;;;;;;;22.45;33.27;103143.69;5055131;28;20132;-41
2022/01/27 06:56:59;;;;;;;343.75;246.90;;;;;;;22.44;33.25;103148.84;5072945;28;20078;-41
2022/01/27 06:59:26;;;;;;;339.75;242.60;;;;;;;22.45;33.29;103155.88;5073062;28;20021;-41
2022/01/27 07:01:55;;;;;;;350.58;249.70;;;;;;;22.45;33.37;103154.16;5073197;28;20035;-41
2022/01/27 07:04:23;;;;;;;347.83;249.15;;;;;;;22.40;33.52;103170.38;5073221;28;20031;-41
2022/01/27 07:06:52;;;;;;;348.48;245.35;;;;;;;22.14;33.61;103114.97;5073436;28;20150;-43
2022/01/27 07:09:21;;;;;;;352.67;251.20;;;;;;;22.44;33.30;103172.41;5055559;28;20024;-43
2022/01/27 07:11:49;;;;;;;354.95;250.73;;;;;;;22.24;33.65;103140.78;5072960;28;20364;-43
2022/01/27 07:14:19;;;;;;;343.27;248.00;;;;;;;22.38;33.58;103154.63;5072929;28;20453;-43
2022/01/27 07:16:48;;;;;;;351.38;251.73;;;;;;;22.46;33.29;103181.22;5055228;28;20055;-41
2022/01/27 07:19:16;;;;;;;352.45;245.93;;;;;;;22.45;33.42;103174.19;5072953;28;20028;-46
2022/01/27 07:21:45;;;;;;;367.90;247.32;;;;;;;22.38;33.56;103172.00;5073367;28;20029;-42
2022/01/27 07:24:13;;;;;;;358.33;250.10;;;;;;;22.45;33.31;103180.31;5055472;28;20483;-41
2022/01/27 07:26:42;;;;;;;365.48;248.85;;;;;;;22.38;33.34;103159.84;5073249;28;20028;-42
2022/01/27 07:29:11;;;;;;;346.80;246.75;;;;;;;22.41;33.52;103173.09;5072854;28;20039;-42
2022/01/27 07:31:40;;;;;;;349.40;249.73;;;;;;;22.41;33.65;103177.41;5072807;28;20040;-42
2022/01/27 07:34:08;;;;;;;371.10;258.52;;;;;;;22.42;33.37;103180.13;5054979;28;20031;-41
2022/01/27 07:36:41;;;;;;;366.48;255.90;;;;;;;22.38;33.77;103174.63;5055051;28;20102;-43
2022/01/27 07:39:14;;;;;;;348.88;251.50;;;;;;;22.41;33.66;103188.78;5072587;28;20099;-42
2022/01/27 07:41:45;;;;;;;357.05;251.65;;;;;;;22.42;33.63;103181.88;5072797;28;20398;-43
2022/01/27 07:44:14;;;;;;;359.00;254.25;;;;;;;22.40;33.66;103179.16;5072758;28;20028;-42
2022/01/27 07:46:42;;;;;;;359.73;251.05;;;;;;;22.37;33.55;103170.22;5073512;28;20016;-42
2022/01/27 07:49:11;;;;;;;361.05;258.20;;;;;;;22.33;33.79;103173.50;5054637;28;20024;-42
2022/01/27 07:51:39;;;;;;;360.10;252.82;;;;;;;22.38;33.53;103190.31;5055017;28;20536;-43
2022/01/27 07:54:08;;;;;;;350.00;253.10;;;;;;;22.36;33.73;103189.31;5073029;28;20474;-42
2022/01/27 07:56:37;;;;;;;365.13;259.15;;;;;;;22.38;33.54;103192.94;5072493;28;20033;-42
2022/01/27 07:59:05;;;;;;;355.73;252.80;;;;;;;22.19;33.83;103163.16;5054442;28;20115;-41
2022/01/27 08:01:34;;;;;;;358.88;253.82;;;;;;;22.39;33.31;103198.25;5055401;28;20024;-41
2022/01/27 08:04:02;;;;;;;364.40;256.52;;;;;;;22.30;33.59;103179.44;5054482;28;20028;-43
2022/01/27 08:06:31;;;;;;;361.60;253.70;;;;;;;22.35;33.86;103190.13;5072312;28;20031;-41
2022/01/27 08:09:00;;;;;;;363.38;253.90;;;;;;;22.31;33.74;103197.84;5072280;28;20029;-41
2022/01/27 08:11:29;;;;;;;347.25;248.13;;;;;;;22.35;33.84;103197.97;5072163;28;20029;-41
2022/01/27 08:13:58;;;;;;;343.23;245.45;;;;;;;22.34;33.74;103193.59;5054885;28;20028;-42
2022/01/27 08:16:27;;;;;;;364.13;254.00;;;;;;;22.37;33.51;103204.19;5072630;28;20395;-42
2022/01/27 08:18:56;;;;;;;361.35;258.73;;;;;;;22.33;33.66;103203.16;5072470;28;20044;-42
2022/01/27 08:21:25;;;;;;;356.80;251.32;;;;;;;22.35;33.76;103203.22;5072479;28;20467;-41
2022/01/27 08:23:54;;;;;;;367.10;255.38;;;;;;;22.30;33.72;103205.59;5072164;28;20127;-41
2022/01/27 08:26:37;;;;;;;360.02;255.82;;;;;;;22.28;33.81;103208.13;5072468;28;20033;-41
2022/01/27 08:31:43;;;;;;;374.40;259.70;;;;;;;22.37;33.77;103212.97;5076381;28;20016;-43
2022/01/27 08:34:17;;;;;;;357.92;249.70;;;;;;;22.31;33.92;103218.75;5075985;28;20025;-44
2022/01/27 08:36:46;;;;;;;358.73;255.17;;;;;;;22.36;33.96;103216.41;5076170;28;20112;-42
2022/01/27 08:39:14;;;;;;;353.95;254.77;;;;;;;22.34;34.04;103214.53;5058163;28;20036;-42
2022/01/27 08:41:43;;;;;;;362.80;252.70;;;;;;;22.33;33.68;103204.88;5075836;28;20487;-41
2022/01/27 08:44:12;;;;;;;359.85;255.18;;;;;;;22.33;33.73;103208.38;5075700;28;20059;-42
2022/01/27 08:46:40;;;;;;;359.08;252.20;;;;;;;22.33;34.04;103210.09;5075902;28;20024;-43
2022/01/27 08:49:09;;;;;;;351.17;254.55;;;;;;;22.38;33.69;103213.84;5057231;28;20123;-42
2022/01/27 08:51:38;;;;;;;368.02;254.20;;;;;;;22.34;33.83;103211.91;5075162;28;20028;-42
2022/01/27 08:54:06;;;;;;;364.70;254.15;;;;;;;22.33;34.13;103208.38;5075614;28;20024;-45
2022/01/27 08:56:35;;;;;;;360.58;257.00;;;;;;;22.34;33.82;103219.75;5075480;28;20104;-42
2022/01/27 08:59:04;;;;;;;362.23;254.80;;;;;;;22.35;33.84;103204.13;5074863;28;20025;-43
2022/01/27 09:01:33;;;;;;;369.80;256.98;;;;;;;22.35;34.02;103201.53;5075235;28;20041;-42
2022/01/27 09:04:01;;;;;;;368.67;253.43;;;;;;;22.31;33.88;103205.69;5074949;28;20052;-42
2022/01/27 09:06:30;;;;;;;351.83;249.95;;;;;;;22.33;34.11;103204.88;5075686;28;20514;-42
2022/01/27 09:09:00;;;;;;;372.63;255.35;;;;;;;22.34;34.19;103196.22;5075580;28;20066;-43
2022/01/27 09:11:30;;;;;;;359.70;255.75;;;;;;;22.29;34.04;103181.16;5075423;28;20108;-42
2022/01/27 09:14:00;;;;;;;366.58;253.15;;;;;;;22.36;33.89;103186.72;5057389;28;20088;-42
2022/01/27 09:16:31;;;;;;;347.10;249.23;;;;;;;22.36;33.94;103190.25;5075110;28;20100;-41
2022/01/27 09:19:01;;;;;;;355.65;251.30;;;;;;;22.35;33.89;103185.81;5075413;28;20025;-42
2022/01/27 09:21:43;;;;;;;368.42;257.10;;;;;;;22.38;33.90;103193.84;5075031;28;20032;-42
2022/01/27 09:24:17;;;;;;;353.60;249.98;;;;;;;22.38;34.12;103195.53;5074772;28;20036;-42
2022/01/27 09:29:17;;;;;;;362.17;255.02;;;;;;;22.39;33.87;103198.25;5075194;28;20598;-43
2022/01/27 09:31:47;;;;;;;365.05;257.50;;;;;;;22.36;33.99;103186.72;5057223;28;20020;-42
2022/01/27 09:34:15;;;;;;;375.17;261.20;;;;;;;22.34;34.13;103189.25;5056972;28;20024;-43
2022/01/27 09:36:44;;;;;;;356.00;252.05;;;;;;;22.35;33.93;103190.13;5074745;28;20035;-42
2022/01/27 09:39:13;;;;;;;356.83;251.18;;;;;;;22.33;34.25;103207.50;5074747;28;20126;-42
2022/01/27 09:41:43;;;;;;;364.15;253.70;;;;;;;22.39;34.25;103210.44;5057285;28;20027;-42
2022/01/27 09:44:13;;;;;;;349.58;251.90;;;;;;;22.34;33.99;103209.28;5056899;28;20051;-43
2022/01/27 09:46:45;;;;;;;357.27;251.43;;;;;;;22.33;34.28;103215.34;5074806;28;20378;-45
2022/01/27 09:49:18;;;;;;;367.30;254.70;;;;;;;22.34;34.05;103225.88;5074439;28;20086;-45
2022/01/27 09:51:47;;;;;;;359.27;252.93;;;;;;;22.34;34.24;103222.38;5074447;28;20549;-42
2022/01/27 09:54:17;;;;;;;359.90;254.30;;;;;;;22.34;34.17;103217.13;5056629;28;20030;-46
2022/01/27 09:56:46;;;;;;;371.65;257.25;;;;;;;22.37;34.39;103226.03;5074377;28;20025;-41
2022/01/27 09:59:14;;;;;;;364.85;255.73;;;;;;;22.35;34.38;103218.91;5073928;28;20111;-42
2022/01/27 10:01:57;;;;;;;359.48;259.50;;;;;;;22.39;34.35;103218.28;5073931;28;20433;-42
2022/01/27 10:04:41;;;;;;;368.55;254.18;;;;;;;22.36;34.24;103213.78;5074130;28;20032;-42
2022/01/27 10:07:11;;;;;;;365.63;258.30;;;;;;;22.41;34.30;103214.03;5074027;28;20032;-42
2022/01/27 10:09:40;;;;;;;361.10;251.32;;;;;;;22.38;34.31;103213.84;5074307;28;20039;-42
2022/01/27 10:12:09;;;;;;;345.67;245.02;;;;;;;22.36;34.38;103199.78;5073611;28;20028;-42
2022/01/27 10:14:39;;;;;;;347.38;244.95;;;;;;;22.35;34.26;103204.13;5073836;28;20055;-42
2022/01/27 10:17:13;;;;;;;339.63;239.43;;;;;;;22.41;34.44;103203.56;5073753;28;20020;-43
2022/01/27 10:19:42;;;;;;;352.58;243.55;;;;;;;22.45;34.41;103205.56;5074080;28;20563;-42
2022/01/27 10:22:13;;;;;;;340.38;233.10;;;;;;;22.43;34.51;103208.09;5056160;28;20485;-41
2022/01/27 10:24:44;;;;;;;335.33;236.07;;;;;;;22.47;34.27;103214.41;5073633;28;20540;-42
2022/01/27 10:27:44;;;;;;;324.27;232.45;;;;;;;22.53;34.47;103209.50;5074036;28;20028;-41
2022/01/27 10:33:03;;;;;;;336.80;233.73;;;;;;;22.56;34.41;103214.91;5073311;28;20037;-42
2022/01/27 10:35:35;;;;;;;337.95;230.50;;;;;;;22.55;34.45;103218.34;5073428;28;20495;-42
2022/01/27 10:38:14;;;;;;;324.10;220.05;;;;;;;22.61;34.50;103221.28;5073985;28;20028;-42
2022/01/27 10:40:45;;;;;;;319.90;225.57;;;;;;;22.69;34.45;103228.66;5073242;28;20024;-42
2022/01/27 10:43:25;;;;;;;317.05;219.88;;;;;;;22.71;34.36;103237.47;5073516;28;20035;-42
2022/01/27 10:46:21;;;;;;;300.25;210.82;;;;;;;22.76;34.07;103244.75;5072963;28;20032;-42
2022/01/27 10:48:58;;;;;;;301.90;206.48;;;;;;;22.82;34.37;103248.53;5073138;28;20074;-41
2022/01/27 10:51:36;;;;;;;298.73;207.82;;;;;;;22.85;34.28;103236.50;5073411;28;20031;-42
2022/01/27 10:54:09;;;;;;;291.15;203.63;;;;;;;22.97;34.21;103235.38;5055031;28;20021;-42
2022/01/27 10:56:39;;;;;;;299.48;207.38;;;;;;;23.02;34.10;103233.88;5073062;28;20056;-41
2022/01/27 10:59:14;;;;;;;300.65;204.38;;;;;;;23.04;34.17;103248.88;5055400;28;20029;-43
2022/01/27 11:01:44;;;;;;;294.95;200.90;;;;;;;23.09;33.97;103243.88;5073091;28;20497;-42
2022/01/27 11:04:14;;;;;;;287.25;200.00;;;;;;;23.13;33.99;103245.84;5055462;28;20041;-42
2022/01/27 11:07:03;;;;;;;282.10;195.75;;;;;;;23.18;33.93;103240.84;5073119;28;20021;-42
2022/01/27 11:09:34;;;;;;;288.05;193.00;;;;;;;23.22;33.81;103232.38;5055390;28;20035;-42
2022/01/27 11:12:12;;;;;;;267.38;181.07;;;;;;;23.32;33.58;103239.88;5073468;28;20475;-42
2022/01/27 11:14:41;;;;;;;283.20;185.50;;;;;;;23.20;33.69;103211.31;5072988;28;20029;-42
2022/01/27 11:17:17;;;;;;;271.38;181.95;;;;;;;23.30;33.57;103220.56;5072998;28;20024;-42
2022/01/27 11:27:40;;;;;;;248.32;175.82;;;;;;;23.51;33.49;103227.72;5067349;28;20415;-41
2022/01/27 11:30:13;;;;;;;254.60;172.77;;;;;;;23.54;33.54;103235.75;5072872;28;20071;-41
2022/01/27 11:32:47;;;;;;;243.73;164.68;;;;;;;23.62;33.34;103231.78;5073026;28;20036;-41
2022/01/27 11:35:20;;;;;;;234.20;160.50;;;;;;;23.70;33.39;103234.78;5072815;28;20047;-41
2022/01/27 11:37:52;;;;;;;240.18;161.98;;;;;;;23.73;33.33;103239.28;5072561;28;20036;-41
2022/01/27 11:40:23;;;;;;;224.18;151.85;;;;;;;23.77;33.32;103236.91;5072788;28;20048;-43
2022/01/27 11:42:55;;;;;;;239.93;164.27;;;;;;;23.77;33.19;103234.28;5055304;28;20021;-41
2022/01/27 11:45:24;;;;;;;230.85;157.48;;;;;;;23.82;33.02;103239.75;5072785;28;20032;-41
2022/01/27 11:48:00;;;;;;;226.70;152.63;;;;;;;23.83;33.26;103236.31;5072596;28;20028;-42
2022/01/27 11:50:37;;;;;;;214.77;147.93;;;;;;;23.85;33.35;103232.03;5072828;28;20383;-42
2022/01/27 11:53:07;;;;;;;209.38;141.90;;;;;;;23.90;32.99;103229.63;5073498;28;20029;-43
2022/01/27 11:55:37;;;;;;;211.20;145.75;;;;;;;23.92;33.04;103220.13;5072751;28;20051;-41
2022/01/27 11:58:18;;;;;;;220.45;145.90;;;;;;;23.99;33.13;103218.72;5072701;28;20024;-42
2022/01/27 12:01:06;;;;;;;208.40;142.73;;;;;;;24.04;33.05;103219.88;5074187;28;20067;-41
2022/01/27 12:03:36;;;;;;;200.20;134.43;;;;;;;24.12;32.79;103224.66;5069091;28;20028;-42